sensor_id;sensor_type;location;lat;lon;timestamp;P1;durP1;ratioP1;P2;durP2;ratioP2
31618;SDS011;18230;51.502;7.108;2022-10-16T00:02:59;4.32;;;2.00;;
31618;SDS011;18230;51.502;7.108;2022-10-16T00:08:00;6.20;;;2.60;;
31618;SDS011;18230;51.502;7.108;2022-10-16T00:13:03;8.95;;;2.22;;
31618;SDS011;18230;51.502;7.108;2022-10-16T00:18:04;7.78;;;2.50;;
31618;SDS011;18230;51.502;7.108;2022-10-16T00:23:05;7.13;;;2.83;;
31618;SDS011;18230;51.502;7.108;2022-10-16T00:28:06;4.63;;;2.08;;
31618;SDS011;18230;51.502;7.108;2022-10-16T00:33:06;6.72;;;2.20;;
31618;SDS011;18230;51.502;7.108;2022-10-16T00:38:07;4.10;;;2.10;;
31618;SDS011;18230;51.502;7.108;2022-10-16T00:43:31;7.25;;;2.10;;
31618;SDS011;18230;51.502;7.108;2022-10-16T00:48:40;4.63;;;1.95;;
31618;SDS011;18230;51.502;7.108;2022-10-16T00:53:45;5.05;;;1.98;;
31618;SDS011;18230;51.502;7.108;2022-10-16T00:58:46;4.38;;;2.00;;
31618;SDS011;18230;51.502;7.108;2022-10-16T01:03:47;10.18;;;1.70;;
31618;SDS011;18230;51.502;7.108;2022-10-16T01:13:55;6.93;;;1.90;;
31618;SDS011;18230;51.502;7.108;2022-10-16T01:19:04;4.60;;;1.48;;
31618;SDS011;18230;51.502;7.108;2022-10-16T01:24:39;4.65;;;1.50;;
31618;SDS011;18230;51.502;7.108;2022-10-16T01:29:59;4.63;;;1.60;;
31618;SDS011;18230;51.502;7.108;2022-10-16T01:40:27;3.80;;;1.47;;
31618;SDS011;18230;51.502;7.108;2022-10-16T01:45:30;4.45;;;1.50;;
31618;SDS011;18230;51.502;7.108;2022-10-16T01:50:33;2.90;;;1.40;;
31618;SDS011;18230;51.502;7.108;2022-10-16T01:55:39;3.53;;;1.40;;
31618;SDS011;18230;51.502;7.108;2022-10-16T02:00:45;3.00;;;1.30;;
31618;SDS011;18230;51.502;7.108;2022-10-16T02:05:49;9.35;;;2.03;;
31618;SDS011;18230;51.502;7.108;2022-10-16T02:10:52;9.73;;;1.40;;
31618;SDS011;18230;51.502;7.108;2022-10-16T02:15:54;5.15;;;1.52;;
31618;SDS011;18230;51.502;7.108;2022-10-16T02:20:57;3.28;;;1.33;;
31618;SDS011;18230;51.502;7.108;2022-10-16T02:26:13;2.17;;;1.40;;
31618;SDS011;18230;51.502;7.108;2022-10-16T02:31:18;2.03;;;1.35;;
31618;SDS011;18230;51.502;7.108;2022-10-16T02:36:25;8.50;;;1.58;;
31618;SDS011;18230;51.502;7.108;2022-10-16T02:41:27;4.85;;;1.65;;
31618;SDS011;18230;51.502;7.108;2022-10-16T02:46:27;2.78;;;1.30;;
31618;SDS011;18230;51.502;7.108;2022-10-16T02:51:28;3.85;;;1.27;;
31618;SDS011;18230;51.502;7.108;2022-10-16T02:56:29;4.82;;;1.20;;
31618;SDS011;18230;51.502;7.108;2022-10-16T03:01:30;4.75;;;1.27;;
31618;SDS011;18230;51.502;7.108;2022-10-16T03:06:31;1.80;;;1.30;;
31618;SDS011;18230;51.502;7.108;2022-10-16T03:11:32;3.60;;;1.33;;
31618;SDS011;18230;51.502;7.108;2022-10-16T03:16:32;3.25;;;1.35;;
31618;SDS011;18230;51.502;7.108;2022-10-16T03:21:33;3.85;;;1.33;;
31618;SDS011;18230;51.502;7.108;2022-10-16T03:26:33;5.00;;;1.27;;
31618;SDS011;18230;51.502;7.108;2022-10-16T03:31:34;1.77;;;1.08;;
31618;SDS011;18230;51.502;7.108;2022-10-16T03:36:35;2.78;;;1.10;;
31618;SDS011;18230;51.502;7.108;2022-10-16T03:41:35;1.80;;;0.93;;
31618;SDS011;18230;51.502;7.108;2022-10-16T03:46:36;3.20;;;1.25;;
31618;SDS011;18230;51.502;7.108;2022-10-16T03:51:37;2.95;;;0.93;;
31618;SDS011;18230;51.502;7.108;2022-10-16T03:56:37;2.28;;;0.93;;
31618;SDS011;18230;51.502;7.108;2022-10-16T04:01:38;5.15;;;1.33;;
31618;SDS011;18230;51.502;7.108;2022-10-16T04:06:39;3.65;;;1.20;;
31618;SDS011;18230;51.502;7.108;2022-10-16T04:11:39;4.80;;;1.45;;
31618;SDS011;18230;51.502;7.108;2022-10-16T04:16:40;2.50;;;1.20;;
31618;SDS011;18230;51.502;7.108;2022-10-16T04:21:41;3.28;;;1.20;;
31618;SDS011;18230;51.502;7.108;2022-10-16T04:26:41;2.53;;;1.35;;
31618;SDS011;18230;51.502;7.108;2022-10-16T04:31:42;3.20;;;0.88;;
31618;SDS011;18230;51.502;7.108;2022-10-16T04:36:43;3.63;;;1.17;;
31618;SDS011;18230;51.502;7.108;2022-10-16T04:41:43;3.97;;;1.17;;
31618;SDS011;18230;51.502;7.108;2022-10-16T04:46:44;4.30;;;1.60;;
31618;SDS011;18230;51.502;7.108;2022-10-16T04:51:44;2.40;;;1.23;;
31618;SDS011;18230;51.502;7.108;2022-10-16T04:56:45;2.25;;;1.33;;
31618;SDS011;18230;51.502;7.108;2022-10-16T05:01:47;6.05;;;1.23;;
31618;SDS011;18230;51.502;7.108;2022-10-16T05:06:48;2.83;;;1.33;;
31618;SDS011;18230;51.502;7.108;2022-10-16T05:11:49;3.42;;;1.40;;
31618;SDS011;18230;51.502;7.108;2022-10-16T05:16:49;2.78;;;1.00;;
31618;SDS011;18230;51.502;7.108;2022-10-16T05:21:50;4.93;;;1.20;;
31618;SDS011;18230;51.502;7.108;2022-10-16T05:26:51;1.92;;;1.00;;
31618;SDS011;18230;51.502;7.108;2022-10-16T05:31:52;4.30;;;1.30;;
31618;SDS011;18230;51.502;7.108;2022-10-16T05:36:53;3.63;;;1.25;;
31618;SDS011;18230;51.502;7.108;2022-10-16T05:41:54;5.05;;;1.00;;
31618;SDS011;18230;51.502;7.108;2022-10-16T05:46:54;2.25;;;1.17;;
31618;SDS011;18230;51.502;7.108;2022-10-16T05:51:55;4.73;;;1.20;;
31618;SDS011;18230;51.502;7.108;2022-10-16T05:56:56;4.70;;;1.00;;
31618;SDS011;18230;51.502;7.108;2022-10-16T06:01:56;3.00;;;1.38;;
31618;SDS011;18230;51.502;7.108;2022-10-16T06:07:00;3.47;;;1.25;;
31618;SDS011;18230;51.502;7.108;2022-10-16T06:12:01;3.55;;;1.10;;
31618;SDS011;18230;51.502;7.108;2022-10-16T06:17:01;2.92;;;1.45;;
31618;SDS011;18230;51.502;7.108;2022-10-16T06:22:02;1.88;;;1.13;;
31618;SDS011;18230;51.502;7.108;2022-10-16T06:27:04;4.22;;;1.23;;
31618;SDS011;18230;51.502;7.108;2022-10-16T06:32:05;5.82;;;1.13;;
31618;SDS011;18230;51.502;7.108;2022-10-16T06:37:05;2.15;;;1.35;;
31618;SDS011;18230;51.502;7.108;2022-10-16T06:42:06;3.60;;;1.40;;
31618;SDS011;18230;51.502;7.108;2022-10-16T06:47:07;3.65;;;1.15;;
31618;SDS011;18230;51.502;7.108;2022-10-16T06:52:07;7.35;;;1.90;;
31618;SDS011;18230;51.502;7.108;2022-10-16T06:57:08;3.55;;;1.50;;
31618;SDS011;18230;51.502;7.108;2022-10-16T07:02:09;4.57;;;2.38;;
31618;SDS011;18230;51.502;7.108;2022-10-16T07:07:10;6.97;;;3.40;;
31618;SDS011;18230;51.502;7.108;2022-10-16T07:12:11;4.55;;;2.17;;
31618;SDS011;18230;51.502;7.108;2022-10-16T07:17:15;6.47;;;1.95;;
31618;SDS011;18230;51.502;7.108;2022-10-16T07:22:15;3.20;;;1.48;;
31618;SDS011;18230;51.502;7.108;2022-10-16T07:27:16;3.10;;;1.55;;
31618;SDS011;18230;51.502;7.108;2022-10-16T07:32:17;6.63;;;1.40;;
31618;SDS011;18230;51.502;7.108;2022-10-16T07:37:17;4.80;;;1.70;;
31618;SDS011;18230;51.502;7.108;2022-10-16T07:42:18;7.70;;;1.60;;
31618;SDS011;18230;51.502;7.108;2022-10-16T07:47:20;4.45;;;1.67;;
31618;SDS011;18230;51.502;7.108;2022-10-16T07:52:20;4.18;;;1.88;;
31618;SDS011;18230;51.502;7.108;2022-10-16T07:57:21;4.30;;;1.98;;
31618;SDS011;18230;51.502;7.108;2022-10-16T08:02:22;3.58;;;1.33;;
31618;SDS011;18230;51.502;7.108;2022-10-16T08:07:22;3.80;;;1.60;;
31618;SDS011;18230;51.502;7.108;2022-10-16T08:12:26;5.50;;;1.77;;
31618;SDS011;18230;51.502;7.108;2022-10-16T08:17:27;5.68;;;1.42;;
31618;SDS011;18230;51.502;7.108;2022-10-16T08:22:27;3.67;;;1.38;;
31618;SDS011;18230;51.502;7.108;2022-10-16T08:27:32;4.50;;;1.00;;
31618;SDS011;18230;51.502;7.108;2022-10-16T08:32:32;6.55;;;1.00;;
31618;SDS011;18230;51.502;7.108;2022-10-16T08:37:33;7.97;;;1.35;;
31618;SDS011;18230;51.502;7.108;2022-10-16T08:42:41;4.38;;;1.40;;
31618;SDS011;18230;51.502;7.108;2022-10-16T08:58:49;3.70;;;1.20;;
31618;SDS011;18230;51.502;7.108;2022-10-16T09:20:20;6.93;;;1.25;;
31618;SDS011;18230;51.502;7.108;2022-10-16T09:25:43;4.50;;;1.38;;
31618;SDS011;18230;51.502;7.108;2022-10-16T09:30:47;7.72;;;1.40;;
31618;SDS011;18230;51.502;7.108;2022-10-16T09:35:50;4.47;;;1.30;;
31618;SDS011;18230;51.502;7.108;2022-10-16T09:40:53;4.30;;;1.25;;
31618;SDS011;18230;51.502;7.108;2022-10-16T09:45:56;6.30;;;1.45;;
31618;SDS011;18230;51.502;7.108;2022-10-16T09:51:14;5.97;;;1.30;;
31618;SDS011;18230;51.502;7.108;2022-10-16T09:56:31;7.80;;;1.60;;
31618;SDS011;18230;51.502;7.108;2022-10-16T10:01:37;4.78;;;1.02;;
31618;SDS011;18230;51.502;7.108;2022-10-16T10:06:43;6.57;;;1.75;;
31618;SDS011;18230;51.502;7.108;2022-10-16T10:17:08;4.28;;;1.23;;
31618;SDS011;18230;51.502;7.108;2022-10-16T10:22:25;2.70;;;1.08;;
31618;SDS011;18230;51.502;7.108;2022-10-16T10:27:36;2.30;;;0.98;;
31618;SDS011;18230;51.502;7.108;2022-10-16T10:43:31;5.25;;;1.50;;
31618;SDS011;18230;51.502;7.108;2022-10-16T10:48:58;5.47;;;2.15;;
31618;SDS011;18230;51.502;7.108;2022-10-16T11:32:06;5.03;;;1.20;;
31618;SDS011;18230;51.502;7.108;2022-10-16T11:37:21;7.75;;;1.25;;
31618;SDS011;18230;51.502;7.108;2022-10-16T11:42:32;4.50;;;1.20;;
31618;SDS011;18230;51.502;7.108;2022-10-16T12:03:42;2.05;;;1.15;;
31618;SDS011;18230;51.502;7.108;2022-10-16T12:08:44;2.97;;;1.00;;
31618;SDS011;18230;51.502;7.108;2022-10-16T12:13:46;4.90;;;0.98;;
31618;SDS011;18230;51.502;7.108;2022-10-16T12:18:48;3.22;;;1.00;;
31618;SDS011;18230;51.502;7.108;2022-10-16T12:23:51;4.47;;;1.00;;
31618;SDS011;18230;51.502;7.108;2022-10-16T12:28:54;3.85;;;1.10;;
31618;SDS011;18230;51.502;7.108;2022-10-16T12:33:57;3.08;;;1.30;;
31618;SDS011;18230;51.502;7.108;2022-10-16T12:39:02;8.73;;;1.30;;
31618;SDS011;18230;51.502;7.108;2022-10-16T12:44:24;4.20;;;1.60;;
31618;SDS011;18230;51.502;7.108;2022-10-16T12:54:31;3.83;;;1.30;;
31618;SDS011;18230;51.502;7.108;2022-10-16T13:16:04;6.00;;;1.00;;
31618;SDS011;18230;51.502;7.108;2022-10-16T13:32:07;4.35;;;1.10;;
31618;SDS011;18230;51.502;7.108;2022-10-16T13:37:18;1.90;;;0.88;;
31618;SDS011;18230;51.502;7.108;2022-10-16T13:42:24;2.33;;;0.90;;
31618;SDS011;18230;51.502;7.108;2022-10-16T13:52:29;2.92;;;0.90;;
31618;SDS011;18230;51.502;7.108;2022-10-16T13:57:30;4.32;;;0.80;;
31618;SDS011;18230;51.502;7.108;2022-10-16T14:02:34;2.67;;;0.82;;
31618;SDS011;18230;51.502;7.108;2022-10-16T14:07:39;4.95;;;1.70;;
31618;SDS011;18230;51.502;7.108;2022-10-16T14:12:40;3.63;;;1.10;;
31618;SDS011;18230;51.502;7.108;2022-10-16T14:17:42;4.15;;;1.77;;
31618;SDS011;18230;51.502;7.108;2022-10-16T14:22:45;4.63;;;0.93;;
31618;SDS011;18230;51.502;7.108;2022-10-16T14:33:24;7.68;;;1.80;;
31618;SDS011;18230;51.502;7.108;2022-10-16T14:44:27;8.57;;;2.72;;
31618;SDS011;18230;51.502;7.108;2022-10-16T14:49:43;3.03;;;0.80;;
31618;SDS011;18230;51.502;7.108;2022-10-16T14:54:50;9.13;;;1.55;;
31618;SDS011;18230;51.502;7.108;2022-10-16T15:00:13;7.38;;;1.10;;
31618;SDS011;18230;51.502;7.108;2022-10-16T15:05:21;6.88;;;3.47;;
31618;SDS011;18230;51.502;7.108;2022-10-16T15:10:27;18.17;;;10.60;;
31618;SDS011;18230;51.502;7.108;2022-10-16T15:15:36;4.45;;;2.40;;
31618;SDS011;18230;51.502;7.108;2022-10-16T15:20:39;19.75;;;11.65;;
31618;SDS011;18230;51.502;7.108;2022-10-16T15:30:48;19.45;;;10.25;;
31618;SDS011;18230;51.502;7.108;2022-10-16T15:36:06;8.45;;;2.53;;
31618;SDS011;18230;51.502;7.108;2022-10-16T15:46:26;13.88;;;5.53;;
31618;SDS011;18230;51.502;7.108;2022-10-16T15:57:47;57.10;;;36.03;;
31618;SDS011;18230;51.502;7.108;2022-10-16T17:02:10;46.30;;;28.10;;
31618;SDS011;18230;51.502;7.108;2022-10-16T17:07:11;49.08;;;28.02;;
31618;SDS011;18230;51.502;7.108;2022-10-16T17:12:12;26.33;;;14.30;;
31618;SDS011;18230;51.502;7.108;2022-10-16T17:17:13;16.92;;;8.02;;
31618;SDS011;18230;51.502;7.108;2022-10-16T17:22:13;9.55;;;4.93;;
31618;SDS011;18230;51.502;7.108;2022-10-16T17:27:14;18.42;;;10.52;;
31618;SDS011;18230;51.502;7.108;2022-10-16T17:32:15;9.50;;;3.70;;
31618;SDS011;18230;51.502;7.108;2022-10-16T17:37:19;12.23;;;6.47;;
31618;SDS011;18230;51.502;7.108;2022-10-16T17:42:21;12.25;;;7.72;;
31618;SDS011;18230;51.502;7.108;2022-10-16T17:47:22;11.38;;;7.15;;
31618;SDS011;18230;51.502;7.108;2022-10-16T17:52:23;9.23;;;4.50;;
31618;SDS011;18230;51.502;7.108;2022-10-16T17:57:24;9.57;;;5.05;;
31618;SDS011;18230;51.502;7.108;2022-10-16T18:02:25;13.75;;;5.72;;
31618;SDS011;18230;51.502;7.108;2022-10-16T18:07:25;12.85;;;6.05;;
31618;SDS011;18230;51.502;7.108;2022-10-16T18:12:26;8.23;;;4.40;;
31618;SDS011;18230;51.502;7.108;2022-10-16T18:17:33;9.48;;;5.13;;
31618;SDS011;18230;51.502;7.108;2022-10-16T18:22:37;11.15;;;7.10;;
31618;SDS011;18230;51.502;7.108;2022-10-16T18:27:38;9.80;;;5.35;;
31618;SDS011;18230;51.502;7.108;2022-10-16T18:32:38;9.50;;;4.90;;
31618;SDS011;18230;51.502;7.108;2022-10-16T18:37:39;9.45;;;5.35;;
31618;SDS011;18230;51.502;7.108;2022-10-16T18:42:40;12.63;;;5.13;;
31618;SDS011;18230;51.502;7.108;2022-10-16T18:47:41;7.82;;;5.13;;
31618;SDS011;18230;51.502;7.108;2022-10-16T18:52:48;9.00;;;5.40;;
31618;SDS011;18230;51.502;7.108;2022-10-16T18:57:49;11.60;;;4.85;;
31618;SDS011;18230;51.502;7.108;2022-10-16T19:02:54;9.77;;;4.88;;
31618;SDS011;18230;51.502;7.108;2022-10-16T19:07:55;18.48;;;9.10;;
31618;SDS011;18230;51.502;7.108;2022-10-16T19:12:55;10.50;;;5.88;;
31618;SDS011;18230;51.502;7.108;2022-10-16T19:17:56;11.05;;;5.13;;
31618;SDS011;18230;51.502;7.108;2022-10-16T19:22:57;13.07;;;4.93;;
31618;SDS011;18230;51.502;7.108;2022-10-16T19:27:58;11.95;;;4.78;;
31618;SDS011;18230;51.502;7.108;2022-10-16T19:33:00;12.52;;;6.70;;
31618;SDS011;18230;51.502;7.108;2022-10-16T19:38:01;17.42;;;8.50;;
31618;SDS011;18230;51.502;7.108;2022-10-16T19:43:02;13.18;;;5.85;;
31618;SDS011;18230;51.502;7.108;2022-10-16T19:48:03;13.13;;;6.75;;
31618;SDS011;18230;51.502;7.108;2022-10-16T19:53:04;10.70;;;5.70;;
31618;SDS011;18230;51.502;7.108;2022-10-16T19:58:05;10.45;;;4.97;;
31618;SDS011;18230;51.502;7.108;2022-10-16T20:03:06;16.98;;;8.77;;
31618;SDS011;18230;51.502;7.108;2022-10-16T20:08:06;11.82;;;7.10;;
31618;SDS011;18230;51.502;7.108;2022-10-16T20:13:07;21.35;;;8.50;;
31618;SDS011;18230;51.502;7.108;2022-10-16T20:18:08;11.88;;;7.80;;
31618;SDS011;18230;51.502;7.108;2022-10-16T20:23:09;18.85;;;10.90;;
31618;SDS011;18230;51.502;7.108;2022-10-16T20:28:10;17.60;;;8.05;;
31618;SDS011;18230;51.502;7.108;2022-10-16T20:33:14;16.52;;;10.45;;
31618;SDS011;18230;51.502;7.108;2022-10-16T20:38:15;14.38;;;8.20;;
31618;SDS011;18230;51.502;7.108;2022-10-16T20:43:19;14.15;;;7.60;;
31618;SDS011;18230;51.502;7.108;2022-10-16T20:48:19;9.15;;;5.65;;
31618;SDS011;18230;51.502;7.108;2022-10-16T20:53:20;9.38;;;5.57;;
31618;SDS011;18230;51.502;7.108;2022-10-16T20:58:21;14.23;;;5.30;;
31618;SDS011;18230;51.502;7.108;2022-10-16T21:03:22;9.85;;;5.60;;
31618;SDS011;18230;51.502;7.108;2022-10-16T21:08:22;7.63;;;4.68;;
31618;SDS011;18230;51.502;7.108;2022-10-16T21:13:23;9.70;;;5.60;;
31618;SDS011;18230;51.502;7.108;2022-10-16T21:18:24;8.73;;;5.47;;
31618;SDS011;18230;51.502;7.108;2022-10-16T21:23:26;9.30;;;5.63;;
31618;SDS011;18230;51.502;7.108;2022-10-16T21:28:29;10.55;;;5.85;;
31618;SDS011;18230;51.502;7.108;2022-10-16T21:33:30;7.65;;;5.40;;
31618;SDS011;18230;51.502;7.108;2022-10-16T21:38:31;11.68;;;8.98;;
31618;SDS011;18230;51.502;7.108;2022-10-16T21:43:32;13.63;;;7.70;;
31618;SDS011;18230;51.502;7.108;2022-10-16T21:48:32;10.63;;;7.18;;
31618;SDS011;18230;51.502;7.108;2022-10-16T21:53:33;9.45;;;6.68;;
31618;SDS011;18230;51.502;7.108;2022-10-16T21:58:34;9.75;;;6.25;;
31618;SDS011;18230;51.502;7.108;2022-10-16T22:03:34;8.60;;;6.57;;
31618;SDS011;18230;51.502;7.108;2022-10-16T22:08:35;15.20;;;8.05;;
31618;SDS011;18230;51.502;7.108;2022-10-16T22:13:37;17.35;;;11.57;;
31618;SDS011;18230;51.502;7.108;2022-10-16T22:18:38;13.77;;;9.88;;
31618;SDS011;18230;51.502;7.108;2022-10-16T22:23:39;17.60;;;11.55;;
31618;SDS011;18230;51.502;7.108;2022-10-16T22:28:39;16.70;;;10.48;;
31618;SDS011;18230;51.502;7.108;2022-10-16T22:33:42;14.27;;;9.45;;
31618;SDS011;18230;51.502;7.108;2022-10-16T22:38:42;12.70;;;8.90;;
31618;SDS011;18230;51.502;7.108;2022-10-16T22:43:44;10.82;;;7.85;;
31618;SDS011;18230;51.502;7.108;2022-10-16T22:48:47;9.65;;;7.88;;
31618;SDS011;18230;51.502;7.108;2022-10-16T22:53:48;9.30;;;6.63;;
31618;SDS011;18230;51.502;7.108;2022-10-16T22:58:49;9.80;;;5.85;;
31618;SDS011;18230;51.502;7.108;2022-10-16T23:03:49;7.50;;;5.35;;
31618;SDS011;18230;51.502;7.108;2022-10-16T23:08:51;7.63;;;5.82;;
31618;SDS011;18230;51.502;7.108;2022-10-16T23:13:53;7.22;;;5.68;;
31618;SDS011;18230;51.502;7.108;2022-10-16T23:18:54;9.35;;;6.13;;
31618;SDS011;18230;51.502;7.108;2022-10-16T23:23:55;8.43;;;6.55;;
31618;SDS011;18230;51.502;7.108;2022-10-16T23:28:56;9.57;;;6.78;;
31618;SDS011;18230;51.502;7.108;2022-10-16T23:33:57;11.13;;;6.85;;
31618;SDS011;18230;51.502;7.108;2022-10-16T23:38:58;9.93;;;6.68;;
31618;SDS011;18230;51.502;7.108;2022-10-16T23:43:58;14.00;;;6.72;;
31618;SDS011;18230;51.502;7.108;2022-10-16T23:48:59;8.90;;;7.38;;
31618;SDS011;18230;51.502;7.108;2022-10-16T23:54:00;9.88;;;7.18;;
31618;SDS011;18230;51.502;7.108;2022-10-16T23:59:01;10.63;;;7.55;;
